Time;durP1;ratioP1;P1;durP2;ratioP2;P2;SDS_P1;SDS_P2;PMS_P1;PMS_P2;Temp;Humidity;BMP_temperature;BMP_pressure;BME280_temperature;BME280_humidity;BME280_pressure;Samples;Min_cycle;Max_cycle;Signal;HPM_P1;HPM_P2
2023/03/14 00:00:34;;;;;;;;;;;;;;;-142.75;100.00;75228.00;5054086;28;20396;-68
2023/03/14 00:02:59;;;;;;;;;;;;;;;-142.75;100.00;75239.81;5053971;28;19912;-68
2023/03/14 00:05:24;;;;;;;;;;;;;;;-142.75;100.00;75228.00;5052701;28;19952;-68
2023/03/14 00:07:49;;;;;;;;;;;;;;;-142.75;100.00;75228.00;5053955;28;19935;-68
2023/03/14 00:10:15;;;;;;;;;;;;;;;-142.75;100.00;75243.75;5053864;28;19912;-68
2023/03/14 00:12:41;;;;;;;;;;;;;;;-142.75;100.00;75233.91;5053747;28;20300;-67
2023/03/14 00:15:06;;;;;;;;;;;;;;;-142.75;100.00;75239.81;5052584;28;19920;-68
2023/03/14 00:17:32;;;;;;;;;;;;;;;-142.75;100.00;75239.81;5053845;28;19913;-67
2023/03/14 00:20:03;;;;;;;;;;;;;;;-142.75;100.00;75243.75;5053534;28;19913;-68
2023/03/14 00:22:29;;;;;;;;;;;;;;;-142.75;100.00;75259.50;5053607;28;19912;-68
2023/03/14 00:24:54;;;;;;;;;;;;;;;-142.75;100.00;75243.75;5053640;28;19966;-68
2023/03/14 00:27:19;;;;;;;;;;;;;;;-142.75;100.00;75247.69;5053666;28;19958;-68
2023/03/14 00:29:45;;;;;;;;;;;;;;;-142.75;100.00;75247.69;5052165;28;19927;-68
2023/03/14 00:32:10;;;;;;;;;;;;;;;-142.75;100.00;75249.66;5052232;28;20369;-68
2023/03/14 00:34:35;;;;;;;;;;;;;;;-142.75;100.00;75235.88;5053079;28;20295;-68
2023/03/14 00:37:00;;;;;;;;;;;;;;;-142.75;100.00;75249.66;5053180;28;19913;-67
2023/03/14 00:39:25;;;;;;;;;;;;;;;-142.75;100.00;75253.59;5053469;28;19916;-65
2023/03/14 00:41:51;;;;;;;;;;;;;;;-142.75;100.00;75255.56;5053159;28;19920;-68
2023/03/14 00:44:16;;;;;;;;;;;;;;;-142.75;100.00;75269.34;5051978;28;19913;-68
2023/03/14 00:46:41;;;;;;;;;;;;;;;-142.75;100.00;75273.28;5052025;28;19912;-68
2023/03/14 00:49:06;;;;;;;;;;;;;;;-142.75;100.00;75267.38;5053204;28;19913;-69
2023/03/14 00:51:32;;;;;;;;;;;;;;;-142.75;100.00;75259.50;5044009;28;19925;-68
2023/03/14 00:53:57;;;;;;;;;;;;;;;-142.75;100.00;75267.38;5032528;28;19932;-67
2023/03/14 00:56:22;;;;;;;;;;;;;;;-142.75;100.00;75273.28;5045945;28;19917;-67
2023/03/14 00:58:47;;;;;;;;;;;;;;;-142.75;100.00;75273.28;5051715;28;19912;-68
2023/03/14 01:01:14;;;;;;;;;;;;;;;-142.75;100.00;75279.19;5052761;28;19924;-68
2023/03/14 01:03:39;;;;;;;;;;;;;;;-142.75;100.00;75275.25;5052520;28;19927;-69
2023/03/14 01:06:12;;;;;;;;;;;;;;;-142.75;100.00;75263.44;5051379;28;19921;-68
2023/03/14 01:08:37;;;;;;;;;;;;;;;-142.75;100.00;75271.31;5052859;28;19988;-67
2023/03/14 01:11:10;;;;;;;;;;;;;;;-142.75;100.00;75249.66;5052630;28;20002;-68
2023/03/14 01:13:36;;;;;;;;;;;;;;;-142.75;100.00;75265.41;5051949;28;20388;-68
2023/03/14 01:16:02;;;;;;;;;;;;;;;-142.75;100.00;75259.50;5052307;28;19983;-67
2023/03/14 01:18:27;;;;;;;;;;;;;;;-142.75;100.00;75259.50;5052408;28;19924;-68
2023/03/14 01:20:53;;;;;;;;;;;;;;;-142.75;100.00;75271.31;5052403;28;19913;-68
2023/03/14 01:23:18;;;;;;;;;;;;;;;-142.75;100.00;75279.19;5052539;28;19913;-68
2023/03/14 01:25:43;;;;;;;;;;;;;;;-142.75;100.00;75310.66;5052520;28;20331;-67
2023/03/14 01:28:08;;;;;;;;;;;;;;;-142.75;100.00;75281.16;5051233;28;19913;-68
2023/03/14 01:30:33;;;;;;;;;;;;;;;-142.75;100.00;75287.06;5052284;28;19966;-67
2023/03/14 01:32:59;;;;;;;;;;;;;;;-142.75;100.00;75267.38;5050955;28;20360;-67
2023/03/14 01:35:24;;;;;;;;;;;;;;;-142.75;100.00;75275.25;5052297;28;20015;-67
2023/03/14 01:37:49;;;;;;;;;;;;;;;-142.75;100.00;75267.38;5052372;28;19974;-68
2023/03/14 01:40:16;;;;;;;;;;;;;;;-142.75;100.00;75261.47;5052265;28;19917;-68
2023/03/14 01:42:44;;;;;;;;;;;;;;;-142.75;100.00;75263.44;5052174;28;19956;-67
2023/03/14 01:45:28;;;;;;;;;;;;;;;-142.75;100.00;75259.50;5052223;28;19913;-68
2023/03/14 01:47:53;;;;;;;;;;;;;;;-142.75;100.00;75259.50;5050608;28;19913;-67
2023/03/14 01:50:19;;;;;;;;;;;;;;;-142.75;100.00;75263.44;5052133;28;19939;-68
2023/03/14 01:52:46;;;;;;;;;;;;;;;-142.75;100.00;75273.28;5051985;28;19916;-67
2023/03/14 01:55:17;;;;;;;;;;;;;;;-142.75;100.00;75259.50;5052077;28;20285;-67
2023/03/14 01:57:54;;;;;;;;;;;;;;;-142.75;100.00;75261.47;5052150;28;19913;-67
2023/03/14 02:00:22;;;;;;;;;;;;;;;-142.75;100.00;75249.66;5050495;28;19928;-67
2023/03/14 02:02:50;;;;;;;;;;;;;;;-142.75;100.00;75291.00;5051894;28;19913;-67
2023/03/14 02:05:18;;;;;;;;;;;;;;;-142.75;100.00;75285.09;5052011;28;19943;-68
2023/03/14 02:07:51;;;;;;;;;;;;;;;-142.75;100.00;75273.28;5050698;28;19958;-67
2023/03/14 02:10:19;;;;;;;;;;;;;;;-142.75;100.00;75285.09;5051901;28;20342;-66
2023/03/14 02:12:45;;;;;;;;;;;;;;;-142.75;100.00;75287.06;5051706;28;19917;-67
2023/03/14 02:15:10;;;;;;;;;;;;;;;-142.75;100.00;75294.94;5051924;28;20374;-68
2023/03/14 02:17:36;;;;;;;;;;;;;;;-142.75;100.00;75285.09;5051815;28;19913;-68
2023/03/14 02:20:07;;;;;;;;;;;;;;;-142.75;100.00;75279.19;5051703;28;19964;-67
2023/03/14 02:22:33;;;;;;;;;;;;;;;-142.75;100.00;75292.97;5050742;28;20284;-67
2023/03/14 02:25:17;;;;;;;;;;;;;;;-142.75;100.00;75277.22;5050504;28;19913;-67
2023/03/14 02:27:43;;;;;;;;;;;;;;;-142.75;100.00;75267.38;5051826;28;20384;-67
2023/03/14 02:30:10;;;;;;;;;;;;;;;-142.75;100.00;75275.25;5051597;28;19917;-68
2023/03/14 02:32:38;;;;;;;;;;;;;;;-142.75;100.00;75267.38;5051566;28;19934;-67
2023/03/14 02:35:06;;;;;;;;;;;;;;;-142.75;100.00;75261.47;5051629;28;19913;-67
2023/03/14 02:38:00;;;;;;;;;;;;;;;-142.75;100.00;75261.47;5051696;28;19921;-68
2023/03/14 02:40:26;;;;;;;;;;;;;;;-142.75;100.00;75261.47;5037524;28;19917;-66
2023/03/14 02:42:51;;;;;;;;;;;;;;;-142.75;100.00;75263.44;5051570;28;19919;-69
2023/03/14 02:45:16;;;;;;;;;;;;;;;-142.75;100.00;75245.72;5051670;28;19975;-68
2023/03/14 02:47:44;;;;;;;;;;;;;;;-142.75;100.00;75239.81;5050358;28;19948;-68
2023/03/14 02:50:12;;;;;;;;;;;;;;;-142.75;100.00;75239.81;5051531;28;19920;-67
2023/03/14 02:52:37;;;;;;;;;;;;;;;-142.75;100.00;75243.75;5051428;28;19917;-68
2023/03/14 02:55:03;;;;;;;;;;;;;;;-142.75;100.00;75237.84;5051576;28;19913;-68
2023/03/14 02:57:29;;;;;;;;;;;;;;;-142.75;100.00;75233.91;5050283;28;19978;-68
2023/03/14 02:59:54;;;;;;;;;;;;;;;-142.75;100.00;75243.75;5054777;28;19920;-67
2023/03/14 03:02:19;;;;;;;;;;;;;;;-142.75;100.00;75243.75;5055150;28;19941;-67
2023/03/14 03:04:44;;;;;;;;;;;;;;;-142.75;100.00;75239.81;5053814;28;20358;-67
2023/03/14 03:07:09;;;;;;;;;;;;;;;-142.75;100.00;75231.94;5053870;28;19913;-67
2023/03/14 03:09:35;;;;;;;;;;;;;;;-142.75;100.00;75228.00;5055187;28;19917;-67
2023/03/14 03:12:00;;;;;;;;;;;;;;;-142.75;100.00;75231.94;5054895;28;20403;-67
2023/03/14 03:14:25;;;;;;;;;;;;;;;-142.75;100.00;75224.09;5054493;28;19928;-67
2023/03/14 03:16:50;;;;;;;;;;;;;;;-142.75;100.00;75216.22;5053657;28;19919;-67
2023/03/14 03:19:17;;;;;;;;;;;;;;;-142.75;100.00;75228.00;5054835;28;20380;-68
2023/03/14 03:21:42;;;;;;;;;;;;;;;-142.75;100.00;75218.19;5054514;28;19916;-65
2023/03/14 03:24:08;;;;;;;;;;;;;;;-142.75;100.00;75222.13;5053321;28;19913;-67
2023/03/14 03:26:36;;;;;;;;;;;;;;;-142.75;100.00;75216.22;5054832;28;20001;-68
2023/03/14 03:29:01;;;;;;;;;;;;;;;-142.75;100.00;75210.31;5053322;28;19913;-67
2023/03/14 03:31:27;;;;;;;;;;;;;;;-142.75;100.00;75202.44;5054653;28;19999;-67
2023/03/14 03:33:52;;;;;;;;;;;;;;;-142.75;100.00;75204.41;5054431;28;20309;-68
2023/03/14 03:36:22;;;;;;;;;;;;;;;-142.75;100.00;75208.34;5054543;28;19923;-68
2023/03/14 03:38:47;;;;;;;;;;;;;;;-142.75;100.00;75208.34;5054562;28;19913;-68
2023/03/14 03:41:12;;;;;;;;;;;;;;;-142.75;100.00;75212.28;5054450;28;19920;-68
2023/03/14 03:43:38;;;;;;;;;;;;;;;-142.75;100.00;75208.34;5054259;28;19920;-67
2023/03/14 03:46:04;;;;;;;;;;;;;;;-142.75;100.00;75216.22;5054408;28;19919;-67
2023/03/14 03:48:30;;;;;;;;;;;;;;;-142.75;100.00;75212.28;5054328;28;20315;-67
2023/03/14 03:50:55;;;;;;;;;;;;;;;-142.75;100.00;75224.09;5054275;28;19928;-67
2023/03/14 03:53:20;;;;;;;;;;;;;;;-142.75;100.00;75212.28;5054139;28;20028;-67
2023/03/14 03:55:45;;;;;;;;;;;;;;;-142.75;100.00;75212.28;5054243;28;20319;-67
2023/03/14 03:58:11;;;;;;;;;;;;;;;-142.75;100.00;75208.34;5054168;28;19958;-67
2023/03/14 04:00:36;;;;;;;;;;;;;;;-142.75;100.00;75214.25;5054037;28;19920;-67
2023/03/14 04:03:01;;;;;;;;;;;;;;;-142.75;100.00;75204.41;5053959;28;19955;-67
2023/03/14 04:05:26;;;;;;;;;;;;;;;-142.75;100.00;75212.28;5054003;28;19921;-67
2023/03/14 04:07:51;;;;;;;;;;;;;;;-142.75;100.00;75216.22;5045648;28;19924;-66
2023/03/14 04:10:17;;;;;;;;;;;;;;;-142.75;100.00;75204.41;5032120;28;19924;-67
2023/03/14 04:12:42;;;;;;;;;;;;;;;-142.75;100.00;75204.41;5033751;28;19921;-68
2023/03/14 04:15:07;;;;;;;;;;;;;;;-142.75;100.00;75206.38;5032837;28;19940;-68
2023/03/14 04:17:33;;;;;;;;;;;;;;;-142.75;100.00;75212.28;5049215;28;19939;-67
2023/03/14 04:19:58;;;;;;;;;;;;;;;-142.75;100.00;75204.41;5033534;28;19967;-67
2023/03/14 04:22:23;;;;;;;;;;;;;;;-142.75;100.00;75208.34;5033523;28;19956;-67
2023/03/14 04:24:48;;;;;;;;;;;;;;;-142.75;100.00;75204.41;5033812;28;19917;-67
2023/03/14 04:27:14;;;;;;;;;;;;;;;-142.75;100.00;75196.53;5033804;28;20284;-68
2023/03/14 04:29:39;;;;;;;;;;;;;;;-142.75;100.00;75180.78;5033182;28;19952;-67
2023/03/14 04:32:05;;;;;;;;;;;;;;;-142.75;100.00;75178.81;5033048;28;20431;-67
2023/03/14 04:34:30;;;;;;;;;;;;;;;-142.75;100.00;75184.72;5033295;28;19964;-67
2023/03/14 04:36:55;;;;;;;;;;;;;;;-142.75;100.00;75182.75;5032478;28;20007;-65
2023/03/14 04:39:20;;;;;;;;;;;;;;;-142.75;100.00;75167.00;5033521;28;19920;-65
2023/03/14 04:41:45;;;;;;;;;;;;;;;-142.75;100.00;75192.59;5033304;28;20007;-66
2023/03/14 04:44:11;;;;;;;;;;;;;;;-142.75;100.00;75176.84;5033383;28;20004;-67
2023/03/14 04:46:36;;;;;;;;;;;;;;;-142.75;100.00;75180.78;5033752;28;20376;-69
2023/03/14 04:49:01;;;;;;;;;;;;;;;-142.75;100.00;75176.84;5031939;28;19913;-67
2023/03/14 04:51:27;;;;;;;;;;;;;;;-142.75;100.00;75172.91;5033216;28;19913;-67
2023/03/14 04:53:52;;;;;;;;;;;;;;;-142.75;100.00;75172.91;5033002;28;20389;-66
2023/03/14 04:56:18;;;;;;;;;;;;;;;-142.75;100.00;75161.13;5031976;28;20384;-66
2023/03/14 04:58:44;;;;;;;;;;;;;;;-142.75;100.00;75157.19;5033058;28;19955;-67
2023/03/14 05:01:09;;;;;;;;;;;;;;;-142.75;100.00;75165.03;5033027;28;20003;-66
2023/03/14 05:03:35;;;;;;;;;;;;;;;-142.75;100.00;75153.25;5032816;28;20414;-65
2023/03/14 05:06:01;;;;;;;;;;;;;;;-142.75;100.00;75157.19;5033059;28;20269;-66
2023/03/14 05:08:26;;;;;;;;;;;;;;;-142.75;100.00;75155.22;5032993;28;19913;-66
2023/03/14 05:10:56;;;;;;;;;;;;;;;-142.75;100.00;75161.13;5031504;28;19917;-66
2023/03/14 05:13:21;;;;;;;;;;;;;;;-142.75;100.00;75143.41;5031301;28;19923;-66
2023/03/14 05:15:46;;;;;;;;;;;;;;;-142.75;100.00;75155.22;5032738;28;20299;-65
2023/03/14 05:18:11;;;;;;;;;;;;;;;-142.75;100.00;75133.56;5032800;28;19914;-66
2023/03/14 05:20:37;;;;;;;;;;;;;;;-142.75;100.00;75149.31;5032546;28;20008;-66
2023/03/14 05:23:02;;;;;;;;;;;;;;;-142.75;100.00;75135.53;5032484;28;19913;-66
2023/03/14 05:25:27;;;;;;;;;;;;;;;-142.75;100.00;75129.63;5032622;28;20008;-66
2023/03/14 05:27:55;;;;;;;;;;;;;;;-142.75;100.00;75117.81;5032621;28;20423;-67
2023/03/14 05:30:21;;;;;;;;;;;;;;;-142.75;100.00;75121.75;5032482;28;19917;-67
2023/03/14 05:32:46;;;;;;;;;;;;;;;-142.75;100.00;75131.59;5032290;28;20008;-66
2023/03/14 05:35:12;;;;;;;;;;;;;;;-142.75;100.00;75121.75;5047800;28;20004;-66
2023/03/14 05:37:37;;;;;;;;;;;;;;;-142.75;100.00;75111.91;5032741;28;19920;-68
2023/03/14 05:40:03;;;;;;;;;;;;;;;-142.75;100.00;75113.88;5032396;28;19920;-66
2023/03/14 05:42:28;;;;;;;;;;;;;;;-142.75;100.00;75115.84;5031017;28;20042;-67
2023/03/14 05:44:53;;;;;;;;;;;;;;;-142.75;100.00;75139.47;5032355;28;19952;-66
2023/03/14 05:47:18;;;;;;;;;;;;;;;-142.75;100.00;75180.78;5032348;28;19925;-67
2023/03/14 05:49:44;;;;;;;;;;;;;;;-142.75;100.00;75222.13;5032007;28;19913;-67
2023/03/14 05:52:09;;;;;;;;;;;;;;;-142.75;100.00;75255.56;5032119;28;19920;-67
2023/03/14 05:54:34;;;;;;;;;;;;;;;-142.75;100.00;75267.38;5047487;28;20417;-67
2023/03/14 05:56:59;;;;;;;;;;;;;;;-142.75;100.00;75304.75;5047497;28;19920;-66
2023/03/14 05:59:25;;;;;;;;;;;;;;;-142.75;100.00;75306.72;5032231;28;20349;-66
2023/03/14 06:01:50;;;;;;;;;;;;;;;-142.75;100.00;75314.59;5031961;28;20003;-67
2023/03/14 06:04:15;;;;;;;;;;;;;;;-142.75;100.00;75342.16;5032028;28;19960;-67
2023/03/14 06:06:40;;;;;;;;;;;;;;;-142.75;100.00;75352.00;5032078;28;20415;-66
2023/03/14 06:09:05;;;;;;;;;;;;;;;-142.75;100.00;75363.78;5030730;28;19917;-66
2023/03/14 06:11:31;;;;;;;;;;;;;;;-142.75;100.00;75373.63;5031965;28;19956;-66
2023/03/14 06:13:56;;;;;;;;;;;;;;;-142.75;100.00;75395.28;5031768;28;20613;-66
2023/03/14 06:16:21;;;;;;;;;;;;;;;-142.75;100.00;75418.91;5047419;28;20004;-67
2023/03/14 06:18:48;;;;;;;;;;;;;;;-142.75;100.00;75420.88;5031871;28;20474;-66
2023/03/14 06:21:14;;;;;;;;;;;;;;;-142.75;100.00;75409.06;5031781;28;20408;-66
2023/03/14 06:23:39;;;;;;;;;;;;;;;-142.75;100.00;75420.88;5031766;28;19913;-65
2023/03/14 06:26:04;;;;;;;;;;;;;;;-142.75;100.00;75440.53;5031942;28;19917;-66
2023/03/14 06:28:29;;;;;;;;;;;;;;;-142.75;100.00;75434.66;5031869;28;19913;-66
2023/03/14 06:30:55;;;;;;;;;;;;;;;-142.75;100.00;75446.44;5031637;28;19928;-66
2023/03/14 06:33:20;;;;;;;;;;;;;;;-142.75;100.00;75444.47;5047870;28;19917;-66
2023/03/14 06:35:45;;;;;;;;;;;;;;;-142.75;100.00;75432.69;5035826;28;19913;-66
2023/03/14 06:38:10;;;;;;;;;;;;;;;-142.75;100.00;75436.59;5035841;28;20015;-64
2023/03/14 06:40:35;;;;;;;;;;;;;;;-142.75;100.00;75456.28;5054064;28;19952;-66
2023/03/14 06:43:01;;;;;;;;;;;;;;;-142.75;100.00;75450.38;5055605;28;19913;-67
2023/03/14 06:45:26;;;;;;;;;;;;;;;-142.75;100.00;75468.09;5055168;28;19917;-66
2023/03/14 06:47:51;;;;;;;;;;;;;;;-142.75;100.00;75479.91;5055536;28;19913;-66
2023/03/14 06:50:16;;;;;;;;;;;;;;;-142.75;100.00;75499.59;5055030;28;19936;-66
2023/03/14 06:52:47;;;;;;;;;;;;;;;-142.75;100.00;75519.25;5055584;28;19959;-66
2023/03/14 06:55:12;;;;;;;;;;;;;;;-142.75;100.00;75535.00;5053824;28;19975;-65
2023/03/14 06:57:37;;;;;;;;;;;;;;;-142.75;100.00;75531.06;5055380;28;19949;-66
2023/03/14 07:00:03;;;;;;;;;;;;;;;-142.75;100.00;75540.91;5054047;28;19945;-63
2023/03/14 07:02:28;;;;;;;;;;;;;;;-142.75;100.00;75564.53;5055168;28;19935;-64
2023/03/14 07:04:54;;;;;;;;;;;;;;;-142.75;100.00;75582.25;5054786;28;20377;-62
2023/03/14 07:07:19;;;;;;;;;;;;;;;-142.75;100.00;75574.38;5055064;28;20011;-66
2023/03/14 07:09:44;;;;;;;;;;;;;;;-142.75;100.00;75592.09;5053054;28;20024;-65
2023/03/14 07:12:09;;;;;;;;;;;;;;;-142.75;100.00;75599.94;5054850;28;19913;-66
2023/03/14 07:14:37;;;;;;;;;;;;;;;-142.75;100.00;75609.78;5054840;28;19920;-67
2023/03/14 07:17:02;;;;;;;;;;;;;;;-142.75;100.00;75633.41;5054828;28;20498;-66
2023/03/14 07:19:27;;;;;;;;;;;;;;;-142.75;100.00;75625.53;5055035;28;19948;-66
2023/03/14 07:21:53;;;;;;;;;;;;;;;-142.75;100.00;75611.75;5054675;28;19920;-65
2023/03/14 07:24:18;;;;;;;;;;;;;;;-142.75;100.00;75621.59;5051695;28;20304;-67
2023/03/14 07:26:43;;;;;;;;;;;;;;;-142.75;100.00;75615.69;5052915;28;19917;-65
2023/03/14 07:29:08;;;;;;;;;;;;;;;-142.75;100.00;75627.50;5054193;28;19913;-66
2023/03/14 07:31:34;;;;;;;;;;;;;;;-142.75;100.00;75635.38;5043118;28;19963;-67
2023/03/14 07:33:59;;;;;;;;;;;;;;;-142.75;100.00;75631.44;5051869;28;19966;-66
2023/03/14 07:36:26;;;;;;;;;;;;;;;-142.75;100.00;75643.25;5050354;28;19974;-66
2023/03/14 07:38:52;;;;;;;;;;;;;;;-142.75;100.00;75657.03;5052403;28;19956;-65
2023/03/14 07:41:17;;;;;;;;;;;;;;;-142.75;100.00;75680.63;5049402;28;19944;-66
2023/03/14 07:43:43;;;;;;;;;;;;;;;-142.75;100.00;75676.69;5034232;28;19913;-66
2023/03/14 07:46:08;;;;;;;;;;;;;;;-142.75;100.00;75676.69;5048222;28;19959;-66
2023/03/14 07:48:33;;;;;;;;;;;;;;;-142.75;100.00;75688.50;5052212;22;19925;-67
2023/03/14 07:50:58;;;;;;;;;;;;;;;-142.75;100.00;75702.28;5013123;28;20369;-66
2023/03/14 07:53:24;;;;;;;;;;;;;;;-142.75;100.00;75712.13;5025193;28;20427;-66
2023/03/14 07:55:53;;;;;;;;;;;;;;;-142.75;100.00;75739.69;5033828;28;19921;-66
2023/03/14 07:58:19;;;;;;;;;;;;;;;-142.75;100.00;75729.84;5018145;28;20277;-67
2023/03/14 08:00:44;;;;;;;;;;;;;;;-142.75;100.00;75759.38;5032612;28;19920;-67
2023/03/14 08:03:09;;;;;;;;;;;;;;;-142.75;100.00;75771.16;5032143;28;19952;-67
2023/03/14 08:05:35;;;;;;;;;;;;;;;-142.75;100.00;75820.38;5036911;28;19928;-67
2023/03/14 08:08:00;;;;;;;;;;;;;;;-142.75;100.00;75849.91;5026264;28;20360;-66
2023/03/14 08:10:27;;;;;;;;;;;;;;;-142.75;100.00;75883.34;5049118;28;19920;-66
2023/03/14 08:12:56;;;;;;;;;;;;;;;-142.75;100.00;75905.00;5029747;28;19921;-66
2023/03/14 08:15:22;;;;;;;;;;;;;;;-142.75;100.00;75893.19;5039556;28;20059;-66
2023/03/14 08:17:51;;;;;;;;;;;;;;;-142.75;100.00;75877.44;5032858;28;19962;-67
2023/03/14 08:20:16;;;;;;;;;;;;;;;-142.75;100.00;75895.16;5053634;28;19924;-67
2023/03/14 08:22:42;;;;;;;;;;;;;;;-142.75;100.00;75905.00;5047658;28;19916;-66
2023/03/14 08:25:07;;;;;;;;;;;;;;;-142.75;100.00;75932.56;5033649;28;19921;-67
2023/03/14 08:27:32;;;;;;;;;;;;;;;-142.75;100.00;75926.66;5033021;28;19924;-66
2023/03/14 08:29:57;;;;;;;;;;;;;;;-142.75;100.00;75964.03;5033269;28;20008;-66
2023/03/14 08:32:23;;;;;;;;;;;;;;;-142.75;100.00;75975.84;5033415;28;19935;-67
2023/03/14 08:34:48;;;;;;;;;;;;;;;-142.75;100.00;75991.59;5033486;28;19917;-68
2023/03/14 08:37:14;;;;;;;;;;;;;;;-142.75;100.00;76015.22;5033373;28;19913;-68
2023/03/14 08:39:39;;;;;;;;;;;;;;;-142.75;100.00;76048.69;5015618;28;20008;-68
2023/03/14 08:42:04;;;;;;;;;;;;;;;-142.75;100.00;76070.34;5032976;28;19940;-68
2023/03/14 08:44:29;;;;;;;;;;;;;;;-142.75;100.00;76066.41;5033451;28;19916;-67
2023/03/14 08:46:55;;;;;;;;;;;;;;;-142.75;100.00;76099.84;5015418;28;19968;-68
2023/03/14 08:49:20;;;;;;;;;;;;;;;-142.75;100.00;76129.38;5033290;28;19920;-68
2023/03/14 08:51:45;;;;;;;;;;;;;;;-142.75;100.00;76149.06;5033104;28;20487;-68
2023/03/14 08:54:11;;;;;;;;;;;;;;;-142.75;100.00;76147.09;5033173;28;20008;-68
2023/03/14 08:56:37;;;;;;;;;;;;;;;-142.75;100.00;76156.94;5032748;28;20281;-67
2023/03/14 08:59:03;;;;;;;;;;;;;;;-142.75;100.00;76172.69;5033099;28;20011;-67
2023/03/14 09:01:28;;;;;;;;;;;;;;;-142.75;100.00;76192.38;5033054;28;20066;-67
2023/03/14 09:03:53;;;;;;;;;;;;;;;-142.75;100.00;76168.75;5032853;28;19913;-67
2023/03/14 09:06:18;;;;;;;;;;;;;;;-142.75;100.00;76188.44;5033057;28;19913;-68
2023/03/14 09:08:44;;;;;;;;;;;;;;;-142.75;100.00;76186.47;5032872;28;19928;-67
2023/03/14 09:11:09;;;;;;;;;;;;;;;-142.75;100.00;76204.16;5032803;28;19920;-67
2023/03/14 09:13:36;;;;;;;;;;;;;;;-142.75;100.00;76225.81;5032671;28;20020;-67
2023/03/14 09:16:01;;;;;;;;;;;;;;;-142.75;100.00;76215.97;5032744;28;20436;-68
2023/03/14 09:18:26;;;;;;;;;;;;;;;-142.75;100.00;76184.50;5014913;28;19913;-68
2023/03/14 09:20:51;;;;;;;;;;;;;;;-142.75;100.00;76192.38;5032641;28;20412;-67
2023/03/14 09:23:17;;;;;;;;;;;;;;;-142.75;100.00;76170.72;5032588;28;19913;-68
2023/03/14 09:25:42;;;;;;;;;;;;;;;-142.75;100.00;76180.56;5032698;28;19952;-67
2023/03/14 09:28:07;;;;;;;;;;;;;;;-142.75;100.00;76188.44;5032592;28;19968;-68
2023/03/14 09:30:32;;;;;;;;;;;;;;;-142.75;100.00;76208.09;5032510;28;19963;-67
2023/03/14 09:32:58;;;;;;;;;;;;;;;-142.75;100.00;76194.34;5014558;28;19925;-67
2023/03/14 09:35:24;;;;;;;;;;;;;;;-142.75;100.00;76219.91;5032631;28;19921;-67
2023/03/14 09:37:51;;;;;;;;;;;;;;;-142.75;100.00;76217.94;5031750;28;20082;-67
2023/03/14 09:40:17;;;;;;;;;;;;;;;-142.75;100.00;76235.66;5032344;28;20349;-67
2023/03/14 09:42:43;;;;;;;;;;;;;;;-142.75;100.00;76237.63;5014535;28;19952;-67
2023/03/14 09:45:11;;;;;;;;;;;;;;;-142.75;100.00;76306.53;5014623;28;19964;-68
2023/03/14 09:47:37;;;;;;;;;;;;;;;-142.75;100.00;76322.28;5031902;28;19917;-68
2023/03/14 09:50:03;;;;;;;;;;;;;;;-142.75;100.00;76363.59;5032465;28;20419;-67
2023/03/14 09:52:33;;;;;;;;;;;;;;;-142.75;100.00;76389.19;5032101;28;19975;-67
2023/03/14 09:54:59;;;;;;;;;;;;;;;-142.75;100.00;76406.91;5014493;28;19917;-67
2023/03/14 09:57:25;;;;;;;;;;;;;;;-142.75;100.00;76397.06;5032160;28;19971;-68
2023/03/14 09:59:53;;;;;;;;;;;;;;;-142.75;100.00;76353.78;5032065;28;20335;-67
2023/03/14 10:02:22;;;;;;;;;;;;;;;-142.75;100.00;76310.47;5032041;28;19921;-67
2023/03/14 10:04:49;;;;;;;;;;;;;;;-142.75;100.00;76241.56;5014386;28;19971;-68
2023/03/14 10:07:16;;;;;;;;;;;;;;;-142.75;100.00;76208.09;5031711;28;19913;-67
2023/03/14 10:09:43;;;;;;;;;;;;;;;-142.75;100.00;76239.59;5031616;28;19952;-67
2023/03/14 10:12:08;;;;;;;;;;;;;;;-142.75;100.00;76296.69;5031926;28;20407;-67
2023/03/14 10:14:35;;;;;;;;;;;;;;;-142.75;100.00;76332.13;5031968;28;19963;-66
2023/03/14 10:17:11;;;;;;;;;;;;;;;-142.75;100.00;76345.91;5014257;28;19999;-67
2023/03/14 10:19:37;;;;;;;;;;;;;;;-142.75;100.00;76349.81;5032235;28;19917;-68
2023/03/14 10:22:04;;;;;;;;;;;;;;;-142.75;100.00;76369.50;5031714;28;20324;-67
2023/03/14 10:24:34;;;;;;;;;;;;;;;-142.75;100.00;76410.84;5031950;28;20405;-67
2023/03/14 10:27:02;;;;;;;;;;;;;;;-142.75;100.00;76436.44;5014069;28;19919;-68
2023/03/14 10:29:28;;;;;;;;;;;;;;;-142.75;100.00;76450.22;5014151;28;20400;-67
2023/03/14 10:32:01;;;;;;;;;;;;;;;-142.75;100.00;76430.53;5031644;28;20008;-67
2023/03/14 10:34:28;;;;;;;;;;;;;;;-142.75;100.00;76446.28;5031750;28;19917;-67
2023/03/14 10:37:06;;;;;;;;;;;;;;;-142.75;100.00;76440.38;5031740;28;19917;-68
2023/03/14 10:39:50;;;;;;;;;;;;;;;-142.75;100.00;76475.81;5031795;28;19921;-68
2023/03/14 10:42:21;;;;;;;;;;;;;;;-142.75;100.00;76534.84;5031623;28;19913;-67
2023/03/14 10:44:49;;;;;;;;;;;;;;;-142.75;100.00;76550.59;5031787;28;20008;-67
2023/03/14 10:47:17;;;;;;;;;;;;;;;-142.75;100.00;76566.34;5013823;28;19940;-67
2023/03/14 10:49:42;;;;;;;;;;;;;;;-142.75;100.00;76568.31;5031567;28;19920;-66
2023/03/14 10:52:22;;;;;;;;;;;;;;;-142.75;100.00;76562.41;5031469;28;19917;-66
2023/03/14 10:54:48;;;;;;;;;;;;;;;-142.75;100.00;76591.94;5013929;28;19963;-67
2023/03/14 10:57:13;;;;;;;;;;;;;;;-142.75;100.00;76595.88;5028350;28;19966;-67
2023/03/14 10:59:39;;;;;;;;;;;;;;;-142.75;100.00;76613.59;5029935;28;19923;-67
2023/03/14 11:02:15;;;;;;;;;;;;;;;-142.75;100.00;76613.59;5010027;28;19917;-67
2023/03/14 11:04:43;;;;;;;;;;;;;;;-142.75;100.00;76617.53;4998549;28;19957;-68
2023/03/14 11:07:26;;;;;;;;;;;;;;;-142.75;100.00;76621.47;5011525;28;19940;-67
2023/03/14 11:10:08;;;;;;;;;;;;;;;-142.75;100.00;76668.72;4993778;28;20386;-66
2023/03/14 11:12:39;;;;;;;;;;;;;;;-142.75;100.00;76643.13;5011438;28;19914;-67
2023/03/14 11:15:17;;;;;;;;;;;;;;;-142.75;100.00;76556.50;5011420;28;20463;-67
2023/03/14 11:17:59;;;;;;;;;;;;;;;-142.75;100.00;76477.78;5011487;28;20016;-67
2023/03/14 11:20:32;;;;;;;;;;;;;;;-142.75;100.00;76365.56;5013903;28;19932;-67
2023/03/14 11:23:08;;;;;;;;;;;;;;;-142.75;100.00;76286.84;5014877;28;19996;-67
2023/03/14 11:25:41;;;;;;;;;;;;;;;-142.75;100.00;76271.09;5014917;28;19914;-67
2023/03/14 11:28:16;;;;;;;;;;;;;;;-142.75;100.00;76259.28;5014965;28;19913;-67
2023/03/14 11:31:07;;;;;;;;;;;;;;;-142.75;100.00;76255.34;5014954;28;19968;-68
2023/03/14 11:33:46;;;;;;;;;;;;;;;-142.75;100.00;76259.28;4965378;28;20468;-69
2023/03/14 11:36:14;;;;;;;;;;;;;;;-142.75;100.00;76286.84;5013181;28;19967;-66
2023/03/14 11:38:47;;;;;;;;;;;;;;;-142.75;100.00;76278.97;5014548;28;19920;-67
2023/03/14 11:41:31;;;;;;;;;;;;;;;-142.75;100.00;76178.59;5014758;28;19921;-67
2023/03/14 11:43:57;;;;;;;;;;;;;;;-142.75;87.76;76288.81;5014622;28;19919;-68
2023/03/14 11:46:22;;;;;;;;;;;;;;;-142.75;88.88;76208.09;5030722;28;19916;-65
2023/03/14 11:49:00;;;;;;;;;;;;;;;-142.75;83.33;76255.34;5034130;28;19944;-66
2023/03/14 11:51:37;;;;;;;;;;;;;;;-142.75;78.99;76241.56;5034386;28;19971;-67
2023/03/14 11:54:18;;;;;;;;;;;;;;;-142.75;74.70;76282.91;5034204;28;20408;-67
2023/03/14 11:56:50;;;;;;;;;;;;;;;-142.75;70.77;76245.50;5034104;28;19920;-67
2023/03/14 11:59:17;;;;;;;;;;;;;;;-142.75;71.55;76261.25;5041357;28;19925;-67
2023/03/14 12:01:53;;;;;;;;;;;;;;;-142.75;72.37;76263.22;5042510;28;20365;-67
2023/03/14 12:04:28;;;;;;;;;;;;;;;-142.75;74.18;76235.66;5042665;28;19921;-66
2023/03/14 12:06:56;;;;;;;;;;;;;;;-142.75;73.20;76200.25;5042517;28;20354;-66
2023/03/14 12:09:22;;;;;;;;;;;;;;;-142.75;70.51;76292.75;5045056;28;20467;-66
2023/03/14 12:11:52;;;;;;;;;;;;;;;-142.75;71.93;76300.63;5042788;28;20331;-66
2023/03/14 12:14:20;;;;;;;;;;;;;;;-142.75;71.87;76326.22;5053937;28;20012;-66
2023/03/14 12:16:47;;;;;;;;;;;;;;;-142.75;75.37;76408.88;5053844;28;20003;-67